Time;durP1;ratioP1;P1;durP2;ratioP2;P2;SDS_P1;SDS_P2;PMS_P1;PMS_P2;Temp;Humidity;BMP_temperature;BMP_pressure;BME280_temperature;BME280_humidity;BME280_pressure;Samples;Min_cycle;Max_cycle;Signal;HPM_P1;HPM_P2
2021/04/29 00:01:56;;;;;;;12.33;8.00;;;22.40;45.90;;;;;;6293190;22;20379;-86
2021/04/29 00:04:25;;;;;;;10.03;7.37;;;22.40;45.90;;;;;;6320269;22;20443;-86
2021/04/29 00:06:51;;;;;;;12.80;8.30;;;22.40;45.90;;;;;;6320682;22;20421;-86
2021/04/29 00:09:17;;;;;;;13.30;8.97;;;22.40;45.90;;;;;;6292453;22;20375;-86
2021/04/29 00:11:42;;;;;;;11.80;7.90;;;22.40;45.90;;;;;;6319630;22;20172;-85
2021/04/29 00:14:10;;;;;;;8.83;7.40;;;22.40;45.90;;;;;;6319367;22;20411;-87
2021/04/29 00:16:37;;;;;;;11.53;8.67;;;22.40;45.90;;;;;;6320020;22;20137;-86
2021/04/29 00:19:04;;;;;;;11.20;8.40;;;22.40;45.90;;;;;;6320622;22;20376;-87
2021/04/29 00:21:30;;;;;;;9.53;7.80;;;22.40;45.90;;;;;;6296542;22;20387;-88
2021/04/29 00:23:56;;;;;;;12.07;7.53;;;22.40;45.90;;;;;;6295028;22;20857;-88
2021/04/29 00:26:22;;;;;;;9.00;7.70;;;22.40;45.90;;;;;;6321920;22;20376;-88
2021/04/29 00:28:47;;;;;;;10.80;8.60;;;22.40;45.90;;;;;;6293052;22;20156;-88
2021/04/29 00:31:13;;;;;;;9.20;7.63;;;22.40;45.90;;;;;;6320638;22;20145;-88
2021/04/29 00:34:35;;;;;;;10.23;7.73;;;22.40;45.90;;;;;;6292774;22;20181;-87
2021/04/29 00:37:04;;;;;;;10.17;7.37;;;22.40;45.80;;;;;;6292729;22;20371;-87
2021/04/29 00:39:29;;;;;;;11.70;8.67;;;22.40;45.90;;;;;;6292960;22;20375;-88
2021/04/29 00:41:55;;;;;;;10.57;7.50;;;22.40;46.00;;;;;;6293596;22;20379;-88
2021/04/29 00:44:21;;;;;;;10.90;7.10;;;22.40;45.90;;;;;;6293533;22;20173;-88
2021/04/29 00:46:47;;;;;;;9.93;7.23;;;22.40;45.90;;;;;;6292750;22;20153;-88
2021/04/29 00:49:15;;;;;;;9.77;6.93;;;22.40;45.90;;;;;;6321272;22;20152;-87
2021/04/29 00:51:41;;;;;;;12.93;8.30;;;22.40;45.90;;;;;;6318466;22;20153;-85
2021/04/29 00:54:07;;;;;;;10.40;8.20;;;22.40;45.90;;;;;;6290035;22;20454;-85
2021/04/29 00:56:33;;;;;;;10.17;7.83;;;22.40;45.90;;;;;;6317159;22;20136;-85
2021/04/29 00:58:58;;;;;;;11.90;7.93;;;22.40;45.90;;;;;;6317376;22;20141;-84
2021/04/29 01:01:25;;;;;;;11.07;7.70;;;22.40;46.00;;;;;;6289793;22;20156;-84
2021/04/29 01:04:10;;;;;;;7.87;6.83;;;22.40;46.00;;;;;;6290200;22;20176;-85
2021/04/29 01:06:52;;;;;;;11.77;7.60;;;22.40;46.00;;;;;;6316703;22;20366;-85
2021/04/29 01:09:26;;;;;;;12.07;7.37;;;22.30;45.90;;;;;;6317160;22;20351;-85
2021/04/29 01:12:26;;;;;;;11.60;7.60;;;22.30;46.00;;;;;;6290147;22;20367;-85
2021/04/29 01:14:54;;;;;;;8.43;6.70;;;22.40;46.00;;;;;;6290502;22;20791;-85
2021/04/29 01:17:21;;;;;;;9.97;7.37;;;22.30;46.10;;;;;;6317382;22;20403;-85
2021/04/29 01:20:05;;;;;;;10.30;6.63;;;22.30;46.10;;;;;;6316882;22;20451;-85
2021/04/29 01:22:35;;;;;;;13.87;7.83;;;22.30;46.10;;;;;;6289901;22;20399;-85
2021/04/29 01:25:09;;;;;;;8.20;7.10;;;22.30;46.10;;;;;;6317461;22;20356;-84
2021/04/29 01:27:36;;;;;;;10.27;7.43;;;22.30;46.10;;;;;;6290712;22;20378;-84
2021/04/29 01:30:07;;;;;;;11.40;7.77;;;22.30;46.10;;;;;;6290240;22;20384;-85
2021/04/29 01:32:33;;;;;;;9.07;7.10;;;22.30;46.10;;;;;;6295255;22;20459;-86
2021/04/29 01:35:00;;;;;;;9.00;7.00;;;22.30;46.10;;;;;;6292619;22;20431;-85
2021/04/29 01:37:25;;;;;;;9.07;6.70;;;22.30;46.10;;;;;;6291284;22;20368;-85
2021/04/29 01:39:52;;;;;;;11.77;7.73;;;22.20;46.10;;;;;;6295829;22;20398;-86
2021/04/29 01:42:18;;;;;;;10.33;7.07;;;22.20;46.10;;;;;;6291489;22;20391;-85
2021/04/29 01:44:45;;;;;;;10.00;7.57;;;22.20;46.10;;;;;;6292130;22;20376;-86
2021/04/29 01:47:11;;;;;;;10.37;7.43;;;22.30;46.10;;;;;;6321706;22;20764;-85
2021/04/29 01:49:37;;;;;;;9.70;6.93;;;22.30;46.20;;;;;;6290090;22;20410;-85
2021/04/29 01:52:04;;;;;;;10.30;7.10;;;22.20;46.10;;;;;;6317651;22;20458;-85
2021/04/29 01:54:30;;;;;;;8.30;6.53;;;22.20;46.20;;;;;;6289675;22;20279;-85
2021/04/29 01:56:56;;;;;;;8.13;6.80;;;22.20;46.20;;;;;;6288669;22;20846;-85
2021/04/29 02:02:43;;;;;;;9.30;6.63;;;22.20;46.10;;;;;;6317032;22;20132;-86
2021/04/29 02:05:11;;;;;;;8.77;7.33;;;22.20;46.20;;;;;;6289293;22;20379;-85
2021/04/29 02:07:36;;;;;;;8.57;6.17;;;22.20;46.20;;;;;;6317126;22;20146;-85
2021/04/29 02:10:06;;;;;;;8.20;6.43;;;22.20;46.20;;;;;;6289957;22;20406;-85
2021/04/29 02:12:36;;;;;;;7.37;6.67;;;22.20;46.20;;;;;;6290955;22;20149;-85
2021/04/29 02:15:08;;;;;;;7.20;5.60;;;22.20;46.20;;;;;;6318700;22;20368;-85
2021/04/29 02:17:48;;;;;;;8.63;6.67;;;22.20;46.20;;;;;;6291083;22;20401;-85
2021/04/29 02:20:16;;;;;;;9.43;7.00;;;22.20;46.20;;;;;;6319172;22;20794;-85
2021/04/29 02:22:43;;;;;;;8.03;6.30;;;22.10;46.10;;;;;;6290637;22;20888;-85
2021/04/29 02:25:13;;;;;;;7.43;6.17;;;22.20;46.20;;;;;;6291040;22;20386;-85
2021/04/29 02:27:39;;;;;;;9.10;6.87;;;22.20;46.20;;;;;;6320941;22;20387;-85
2021/04/29 02:30:11;;;;;;;8.17;7.07;;;22.20;46.20;;;;;;6296340;22;20375;-86
2021/04/29 02:32:38;;;;;;;8.40;5.73;;;22.20;46.20;;;;;;6293039;22;20391;-85
2021/04/29 02:35:09;;;;;;;7.37;4.97;;;22.20;46.20;;;;;;6325161;22;20383;-85
2021/04/29 02:37:36;;;;;;;7.07;5.60;;;22.20;46.20;;;;;;6296216;22;20376;-85
2021/04/29 02:40:05;;;;;;;6.70;4.97;;;22.10;46.10;;;;;;6295455;22;20376;-86
2021/04/29 02:42:32;;;;;;;6.20;5.60;;;22.20;46.20;;;;;;6299958;22;20455;-86
2021/04/29 02:44:59;;;;;;;7.07;5.30;;;22.10;46.10;;;;;;6295970;22;20391;-85
2021/04/29 02:47:25;;;;;;;6.63;5.37;;;22.20;46.20;;;;;;6295921;22;20390;-85
2021/04/29 02:49:51;;;;;;;5.63;5.03;;;22.20;46.20;;;;;;6320480;22;20352;-85
2021/04/29 02:52:17;;;;;;;6.50;4.80;;;22.10;46.20;;;;;;6291453;22;20399;-85
2021/04/29 02:54:43;;;;;;;6.83;5.20;;;22.10;46.10;;;;;;6290636;22;20183;-85
2021/04/29 02:57:09;;;;;;;6.90;4.77;;;22.10;46.20;;;;;;6291109;22;20402;-85
2021/04/29 02:59:41;;;;;;;6.10;4.90;;;22.10;46.10;;;;;;6318939;22;20818;-85
2021/04/29 03:02:10;;;;;;;9.67;6.30;;;22.10;46.20;;;;;;6318719;22;20145;-85
2021/04/29 03:04:36;;;;;;;8.00;6.00;;;22.10;46.20;;;;;;6290421;22;20410;-85
2021/04/29 03:07:01;;;;;;;6.90;5.60;;;22.10;46.20;;;;;;6291318;22;20380;-86
2021/04/29 03:09:27;;;;;;;6.20;4.90;;;22.10;46.20;;;;;;6318618;22;20218;-85
2021/04/29 03:11:53;;;;;;;7.17;5.20;;;22.10;46.70;;;;;;6317626;22;20459;-85
2021/04/29 03:14:19;;;;;;;6.40;5.13;;;22.10;46.20;;;;;;6290670;22;20180;-85
2021/04/29 03:16:44;;;;;;;7.53;5.80;;;22.10;46.20;;;;;;6318542;22;20145;-85
2021/04/29 03:19:10;;;;;;;6.57;5.87;;;22.10;46.20;;;;;;6290625;22;20165;-86
2021/04/29 03:24:58;;;;;;;9.23;6.00;;;22.10;46.10;;;;;;6322903;22;20176;-85
2021/04/29 03:27:26;;;;;;;7.77;5.90;;;22.10;46.20;;;;;;6324267;22;20352;-86
2021/04/29 03:29:53;;;;;;;6.80;5.53;;;22.10;46.30;;;;;;6294828;22;20521;-85
2021/04/29 03:32:19;;;;;;;7.00;5.70;;;22.10;46.20;;;;;;6295722;22;20853;-85
2021/04/29 03:34:45;;;;;;;8.20;5.23;;;22.10;46.30;;;;;;6293435;22;20419;-85
2021/04/29 03:37:11;;;;;;;5.70;4.93;;;22.10;46.20;;;;;;6320029;22;20872;-85
2021/04/29 03:39:37;;;;;;;6.17;5.00;;;22.10;46.30;;;;;;6295278;22;20402;-85
2021/04/29 03:42:09;;;;;;;5.67;5.00;;;22.10;46.30;;;;;;6319104;22;20360;-86
2021/04/29 03:44:36;;;;;;;4.97;4.43;;;22.10;46.20;;;;;;6318296;22;20367;-85
2021/04/29 03:47:06;;;;;;;7.00;5.30;;;22.10;46.30;;;;;;6318135;22;20368;-84
2021/04/29 03:49:32;;;;;;;6.63;4.57;;;22.10;46.30;;;;;;6290932;22;20392;-84
2021/04/29 03:51:58;;;;;;;5.80;4.67;;;22.10;46.40;;;;;;6291844;22;20379;-85
2021/04/29 03:54:24;;;;;;;7.30;5.40;;;22.10;46.40;;;;;;6318681;22;20412;-85
2021/04/29 03:56:51;;;;;;;6.67;4.73;;;22.10;46.50;;;;;;6291148;22;20384;-85
2021/04/29 03:59:17;;;;;;;5.83;4.67;;;22.10;46.40;;;;;;6290845;22;20171;-84
2021/04/29 04:01:43;;;;;;;8.27;5.67;;;22.10;46.40;;;;;;6291301;22;20379;-86
2021/04/29 04:04:08;;;;;;;5.47;4.83;;;22.10;46.80;;;;;;6318310;22;20148;-86
2021/04/29 04:06:34;;;;;;;6.63;5.63;;;22.10;46.60;;;;;;6290585;22;20858;-85
2021/04/29 04:09:00;;;;;;;6.80;4.80;;;22.00;46.50;;;;;;6290412;22;20159;-85
2021/04/29 04:11:26;;;;;;;6.63;5.23;;;22.00;46.40;;;;;;6289684;22;20152;-85
2021/04/29 04:13:53;;;;;;;5.70;4.53;;;22.00;46.60;;;;;;6292264;22;20184;-85
2021/04/29 04:16:21;;;;;;;5.97;4.40;;;22.10;46.40;;;;;;6319992;22;20363;-84
2021/04/29 04:18:47;;;;;;;5.77;4.80;;;22.00;46.70;;;;;;6290333;22;20375;-84
2021/04/29 04:21:13;;;;;;;6.07;4.53;;;22.00;46.60;;;;;;6321870;22;20364;-84
2021/04/29 04:23:38;;;;;;;7.13;5.70;;;22.10;46.50;;;;;;6294120;22;20164;-84
2021/04/29 04:29:26;;;;;;;5.50;4.40;;;22.10;46.30;;;;;;6322223;22;20160;-85
2021/04/29 04:31:52;;;;;;;8.57;5.83;;;22.00;46.40;;;;;;6321148;22;20360;-84
2021/04/29 04:34:18;;;;;;;7.30;4.90;;;22.00;46.60;;;;;;6322422;22;20181;-86
2021/04/29 04:36:50;;;;;;;5.73;4.77;;;22.00;46.60;;;;;;6322835;22;20129;-85
2021/04/29 04:39:15;;;;;;;5.13;4.60;;;22.10;46.40;;;;;;6291354;22;20152;-85
2021/04/29 04:41:41;;;;;;;8.30;5.60;;;22.10;46.40;;;;;;6318547;22;20367;-85
2021/04/29 04:44:07;;;;;;;6.53;5.00;;;22.10;46.50;;;;;;6317813;22;20141;-84
2021/04/29 04:46:32;;;;;;;6.77;5.13;;;22.10;46.40;;;;;;6291163;22;20152;-85
2021/04/29 04:49:00;;;;;;;7.47;5.33;;;22.10;46.40;;;;;;6291119;22;20222;-86
2021/04/29 04:51:26;;;;;;;6.80;5.63;;;22.10;46.40;;;;;;6289961;22;20205;-85
2021/04/29 04:53:52;;;;;;;6.53;4.93;;;22.10;46.40;;;;;;6290626;22;20447;-85
2021/04/29 04:56:18;;;;;;;7.40;4.87;;;22.10;46.40;;;;;;6319933;22;20594;-85
2021/04/29 04:58:44;;;;;;;5.53;4.60;;;22.20;46.60;;;;;;6291560;22;20368;-85
2021/04/29 05:01:10;;;;;;;5.93;4.73;;;22.20;46.40;;;;;;6318841;22;20176;-85
2021/04/29 05:03:36;;;;;;;5.97;5.03;;;22.20;46.50;;;;;;6319234;22;20153;-85
2021/04/29 05:06:02;;;;;;;6.00;5.13;;;22.20;46.60;;;;;;6291267;22;20411;-85
2021/04/29 05:08:29;;;;;;;7.17;5.53;;;22.20;46.40;;;;;;6261450;22;20173;-85
2021/04/29 05:10:55;;;;;;;6.70;5.13;;;22.30;46.50;;;;;;6287855;22;20399;-85
2021/04/29 05:13:22;;;;;;;5.53;4.53;;;22.20;46.30;;;;;;6290067;22;20170;-84
2021/04/29 05:15:48;;;;;;;6.53;5.27;;;22.20;46.40;;;;;;6264418;22;20241;-85
2021/04/29 05:18:13;;;;;;;6.73;5.00;;;22.20;46.50;;;;;;6292145;22;20353;-85
2021/04/29 05:20:39;;;;;;;6.40;4.70;;;22.20;46.40;;;;;;6263115;22;20149;-85
2021/04/29 05:23:05;;;;;;;7.20;5.20;;;22.20;46.40;;;;;;6294017;22;20157;-86
2021/04/29 05:25:31;;;;;;;7.60;5.10;;;22.20;46.40;;;;;;6293714;22;20235;-85
2021/04/29 05:28:02;;;;;;;6.17;4.60;;;22.20;46.40;;;;;;6291607;22;20559;-85
2021/04/29 05:30:29;;;;;;;6.13;4.67;;;22.30;46.30;;;;;;6268623;22;20177;-87
2021/04/29 05:32:55;;;;;;;4.57;3.73;;;22.30;46.30;;;;;;6294833;22;20369;-86
2021/04/29 05:35:24;;;;;;;5.93;4.70;;;22.20;46.40;;;;;;6265099;22;20404;-87
2021/04/29 05:37:50;;;;;;;6.40;4.90;;;22.20;46.30;;;;;;6266203;22;20168;-86
2021/04/29 05:40:16;;;;;;;4.30;3.40;;;22.30;46.60;;;;;;6288796;22;20349;-86
2021/04/29 05:46:04;;;;;;;5.30;3.90;;;22.30;46.20;;;;;;6290934;22;20538;-86
2021/04/29 05:48:33;;;;;;;5.33;4.20;;;22.20;46.20;;;;;;6293189;22;20364;-86
2021/04/29 05:50:59;;;;;;;5.57;4.00;;;22.20;46.90;;;;;;6241815;22;20391;-87
2021/04/29 05:53:25;;;;;;;9.30;4.67;;;22.20;46.50;;;;;;6293122;22;20416;-86
2021/04/29 05:55:51;;;;;;;4.67;4.10;;;22.20;46.30;;;;;;6266716;22;20149;-86
2021/04/29 05:58:17;;;;;;;5.90;4.70;;;22.20;46.40;;;;;;6293755;22;20359;-85
2021/04/29 06:00:43;;;;;;;5.33;4.60;;;22.20;46.50;;;;;;6266249;22;20150;-85
2021/04/29 06:03:08;;;;;;;6.07;4.57;;;22.20;46.50;;;;;;6292842;22;20379;-86
2021/04/29 06:05:37;;;;;;;5.60;4.30;;;22.20;46.30;;;;;;6266230;22;20160;-85
2021/04/29 06:08:04;;;;;;;4.90;4.30;;;22.20;46.20;;;;;;6264704;22;20233;-85
2021/04/29 06:10:32;;;;;;;5.00;4.27;;;22.20;46.30;;;;;;6292998;22;20372;-85
2021/04/29 06:13:01;;;;;;;4.60;3.73;;;22.20;46.60;;;;;;6268979;22;20419;-86
2021/04/29 06:15:29;;;;;;;5.13;4.33;;;22.20;46.40;;;;;;6267991;22;20456;-86
2021/04/29 06:18:11;;;;;;;5.37;3.70;;;22.20;46.20;;;;;;6292085;22;20463;-87
2021/04/29 06:20:41;;;;;;;5.00;4.30;;;22.30;46.30;;;;;;6271711;22;20368;-87
2021/04/29 06:23:09;;;;;;;6.07;5.00;;;22.30;46.50;;;;;;6293198;22;20379;-86
2021/04/29 06:26:01;;;;;;;5.73;4.53;;;22.40;46.60;;;;;;6297119;22;20373;-85
2021/04/29 06:28:48;;;;;;;4.90;3.53;;;22.40;46.30;;;;;;6266090;22;20385;-86
2021/04/29 06:35:05;;;;;;;6.33;4.47;;;22.40;46.10;;;;;;6290279;22;20407;-86
2021/04/29 06:37:31;;;;;;;4.67;4.17;;;22.50;46.30;;;;;;6258637;22;20407;-86
2021/04/29 06:40:02;;;;;;;4.67;4.00;;;22.50;46.40;;;;;;6262694;22;20380;-87
2021/04/29 06:42:32;;;;;;;7.37;4.17;;;22.50;46.20;;;;;;6289915;22;20130;-86
2021/04/29 06:44:58;;;;;;;5.20;3.33;;;22.50;46.20;;;;;;6288461;22;20389;-88
2021/04/29 06:47:31;;;;;;;5.23;3.80;;;22.60;46.40;;;;;;6291306;22;20376;-87
2021/04/29 06:49:57;;;;;;;5.47;4.20;;;22.60;46.40;;;;;;6262976;22;20375;-87
2021/04/29 06:52:26;;;;;;;4.70;3.57;;;22.60;46.20;;;;;;6287085;22;20434;-87
2021/04/29 06:54:52;;;;;;;4.80;3.93;;;22.50;46.10;;;;;;6263240;22;20811;-87
2021/04/29 06:57:21;;;;;;;5.23;4.13;;;22.70;46.30;;;;;;6263762;22;20411;-87
2021/04/29 06:59:47;;;;;;;4.03;3.23;;;22.70;46.40;;;;;;6263642;22;20403;-87
2021/04/29 07:02:13;;;;;;;5.20;3.40;;;22.70;46.40;;;;;;6290381;22;20365;-87
2021/04/29 07:04:42;;;;;;;4.97;3.30;;;22.70;46.40;;;;;;6262217;22;20158;-87
2021/04/29 07:07:38;;;;;;;5.20;4.00;;;22.70;46.40;;;;;;6290483;22;20207;-87
2021/04/29 07:10:48;;;;;;;4.90;3.77;;;22.70;46.30;;;;;;6268434;22;20469;-86
2021/04/29 07:13:23;;;;;;;4.60;3.37;;;22.90;46.30;;;;;;6237798;22;20420;-91
2021/04/29 07:15:55;;;;;;;4.53;3.83;;;22.70;46.20;;;;;;6264486;22;20755;-90
2021/04/29 07:18:57;;;;;;;6.23;4.63;;;22.80;46.60;;;;;;6264173;22;20857;-90
2021/04/29 07:31:38;;;;;;;3.50;3.20;;;22.70;46.20;;;;;;6227796;23;20451;-87
2021/04/29 07:34:08;;;;;;;4.17;3.10;;;22.80;46.40;;;;;;6203693;23;20476;-86
2021/04/29 07:36:51;;;;;;;;;;;;;;;;;;;;;
2021/04/29 07:39:19;;;;;;;4.33;3.37;;;22.80;46.40;;;;;;6228241;23;20382;-85
2021/04/29 07:41:45;;;;;;;6.10;3.80;;;22.80;46.60;;;;;;6228404;23;20374;-84
2021/04/29 07:44:14;;;;;;;3.63;3.10;;;22.80;46.80;;;;;;6228101;23;20394;-85
2021/04/29 07:46:39;;;;;;;5.60;3.67;;;22.90;46.70;;;;;;6228139;23;20446;-84
2021/04/29 07:49:05;;;;;;;5.37;3.50;;;22.90;46.50;;;;;;6202899;23;20449;-84
2021/04/29 07:51:32;;;;;;;4.27;3.30;;;22.90;46.70;;;;;;6202850;23;20717;-85
2021/04/29 07:54:04;;;;;;;5.13;3.40;;;22.90;46.60;;;;;;6203071;23;20182;-84
2021/04/29 07:56:30;;;;;;;4.63;3.17;;;23.00;46.50;;;;;;6203704;23;20736;-85
2021/04/29 08:02:18;;;;;;;4.23;3.07;;;22.90;46.40;;;;;;6279454;22;20420;-84
2021/04/29 08:04:43;;;;;;;3.40;3.10;;;22.90;46.60;;;;;;6291652;22;20376;-85
2021/04/29 08:07:09;;;;;;;3.40;3.03;;;23.00;46.60;;;;;;6264035;22;20154;-86
2021/04/29 08:09:35;;;;;;;4.50;3.20;;;23.00;46.60;;;;;;6265331;22;20160;-86
2021/04/29 08:12:04;;;;;;;6.70;3.10;;;23.00;46.80;;;;;;6289047;22;20386;-85
2021/04/29 08:14:29;;;;;;;4.53;3.10;;;23.00;46.50;;;;;;6291599;22;20176;-84
2021/04/29 08:20:18;;;;;;;3.40;2.93;;;23.00;46.40;;;;;;6294204;22;20161;-84
2021/04/29 08:22:45;;;;;;;5.47;3.33;;;23.00;46.60;;;;;;6267924;22;20441;-85
2021/04/29 08:25:11;;;;;;;4.10;3.17;;;23.00;46.80;;;;;;6269290;22;20384;-86
2021/04/29 08:27:39;;;;;;;6.20;3.30;;;23.00;46.80;;;;;;6266746;22;20419;-85
2021/04/29 08:30:09;;;;;;;3.70;2.97;;;23.00;46.70;;;;;;6269574;22;20376;-84
2021/04/29 08:32:35;;;;;;;6.53;2.77;;;23.10;46.60;;;;;;6269574;22;20384;-85
2021/04/29 08:38:26;;;;;;;4.00;2.60;;;23.00;46.40;;;;;;6293684;22;20395;-85
2021/04/29 08:40:52;;;;;;;3.30;2.60;;;23.10;46.60;;;;;;6267301;22;20373;-85
2021/04/29 08:43:21;;;;;;;3.40;2.87;;;23.00;46.70;;;;;;6297753;22;20379;-85
2021/04/29 08:45:47;;;;;;;4.90;3.27;;;23.10;46.50;;;;;;6269626;22;20180;-85
2021/04/29 08:48:21;;;;;;;4.07;3.00;;;23.10;47.00;;;;;;6262336;22;20389;-87
2021/04/29 08:50:58;;;;;;;3.70;3.20;;;23.10;46.60;;;;;;6287870;22;20406;-86
2021/04/29 08:56:49;;;;;;;4.40;3.10;;;23.10;46.60;;;;;;6240400;22;20373;-87
2021/04/29 08:59:21;;;;;;;6.40;3.60;;;23.10;46.60;;;;;;6265600;22;20426;-88
2021/04/29 09:01:55;;;;;;;5.97;4.07;;;23.00;46.70;;;;;;6262439;22;20451;-87
2021/04/29 09:11:23;;;;;;;5.60;4.00;;;23.20;46.70;;;;;;6195148;23;20362;-88
2021/04/29 09:14:12;;;;;;;5.33;3.40;;;23.10;46.70;;;;;;6164952;23;20426;-87
2021/04/29 09:16:41;;;;;;;6.60;4.10;;;23.10;46.70;;;;;;6195892;23;20380;-84
2021/04/29 09:19:48;;;;;;;6.10;3.70;;;23.20;46.80;;;;;;6183836;23;20466;-82
2021/04/29 09:22:35;;;;;;;4.13;3.40;;;23.10;46.60;;;;;;6127740;23;20400;-82
2021/04/29 09:32:27;;;;;;;8.80;5.97;;;23.20;46.80;;;;;;6134951;23;20375;-86
2021/04/29 09:34:59;;;;;;;9.80;6.60;;;23.20;46.90;;;;;;6135926;23;20495;-85
2021/04/29 09:37:58;;;;;;;8.47;6.53;;;23.20;47.00;;;;;;6135130;23;20838;-88
2021/04/29 09:55:01;;;;;;;7.60;5.47;;;23.20;46.80;;;;;;6054472;23;20956;-87
2021/04/29 09:57:53;;;;;;;;;;;;;;;;;;;;;
2021/04/29 10:07:10;;;;;;;10.80;6.40;;;23.20;47.00;;;;;;6022421;23;20393;-88
2021/04/29 10:09:40;;;;;;;10.10;6.13;;;23.30;47.00;;;;;;5999495;23;20392;-90
2021/04/29 10:12:11;;;;;;;8.23;6.40;;;23.30;47.00;;;;;;5998842;23;20471;-90
2021/04/29 10:14:51;;;;;;;9.37;7.13;;;23.30;47.00;;;;;;5997761;23;20436;-92
2021/04/29 10:17:20;;;;;;;10.17;6.73;;;23.30;47.00;;;;;;6019966;23;20388;-90
2021/04/29 10:20:08;;;;;;;9.37;7.60;;;23.10;46.90;;;;;;6011867;23;20387;-86
2021/04/29 10:22:47;;;;;;;11.90;7.83;;;23.30;47.50;;;;;;6049366;23;20419;-92
2021/04/29 10:25:35;;;;;;;9.90;7.47;;;23.30;46.90;;;;;;6049055;23;20953;-91
2021/04/29 10:28:12;;;;;;;9.50;7.50;;;23.30;46.80;;;;;;6124188;23;20724;-92
2021/04/29 10:30:39;;;;;;;9.00;6.97;;;23.40;47.00;;;;;;6134901;23;20381;-91
2021/04/29 10:33:16;;;;;;;10.77;7.83;;;23.30;47.10;;;;;;6134149;23;20385;-91
2021/04/29 10:36:28;;;;;;;7.87;6.40;;;23.40;46.80;;;;;;6136588;23;20365;-91
2021/04/29 10:39:18;;;;;;;8.50;6.67;;;23.40;46.80;;;;;;6135040;23;20859;-92
2021/04/29 10:41:48;;;;;;;9.83;7.00;;;23.30;46.70;;;;;;6135351;23;20381;-91
2021/04/29 10:44:19;;;;;;;11.20;7.07;;;23.40;46.80;;;;;;6251740;22;20395;-91
2021/04/29 10:46:48;;;;;;;11.40;6.90;;;23.40;46.80;;;;;;6293619;22;20379;-86
2021/04/29 10:49:16;;;;;;;8.70;6.87;;;23.40;46.80;;;;;;6264619;22;20384;-86
2021/04/29 10:51:51;;;;;;;11.33;7.40;;;23.40;46.90;;;;;;6292081;22;20403;-85
2021/04/29 10:54:22;;;;;;;10.20;6.97;;;23.40;46.80;;;;;;6263567;22;20424;-85
2021/04/29 10:57:08;;;;;;;9.67;7.40;;;23.40;46.80;;;;;;6289051;22;20369;-85
2021/04/29 10:59:54;;;;;;;10.30;7.50;;;23.40;46.60;;;;;;6288587;22;20354;-85
2021/04/29 11:02:32;;;;;;;12.40;8.00;;;23.40;46.60;;;;;;6263044;22;20380;-88
2021/04/29 11:05:29;;;;;;;;;;;;;;;;;;;;;
2021/04/29 11:08:17;;;;;;;10.83;8.63;;;23.40;46.80;;;;;;6271875;22;20387;-88
2021/04/29 11:14:16;;;;;;;11.20;7.70;;;23.40;46.70;;;;;;6251204;22;20439;-86
2021/04/29 11:16:51;;;;;;;11.53;8.03;;;23.40;46.60;;;;;;6267867;22;20368;-88
2021/04/29 11:19:41;;;;;;;11.63;8.00;;;23.40;46.70;;;;;;6269706;22;20364;-86
2021/04/29 11:22:42;;;;;;;10.70;8.43;;;23.40;46.70;;;;;;6268924;22;20368;-86
2021/04/29 11:25:20;;;;;;;16.77;10.27;;;23.30;46.60;;;;;;6282293;22;20757;-86
2021/04/29 11:27:52;;;;;;;19.13;13.60;;;23.40;46.70;;;;;;6267894;22;20369;-85
2021/04/29 11:30:18;;;;;;;17.93;13.33;;;23.40;46.80;;;;;;6267331;22;20372;-86
2021/04/29 11:33:10;;;;;;;23.27;14.13;;;23.40;46.80;;;;;;6294587;22;20361;-87
2021/04/29 11:35:39;;;;;;;19.50;11.70;;;23.40;46.80;;;;;;6266269;22;20458;-86
2021/04/29 11:38:10;;;;;;;21.27;13.40;;;23.40;46.90;;;;;;6266550;22;20400;-86
2021/04/29 11:40:39;;;;;;;21.10;14.70;;;23.40;46.70;;;;;;6266033;22;20448;-87
2021/04/29 11:43:09;;;;;;;21.07;13.63;;;23.40;46.80;;;;;;6266496;22;20376;-86
2021/04/29 11:45:46;;;;;;;20.43;12.83;;;23.40;46.80;;;;;;6266869;22;20372;-86
2021/04/29 11:48:14;;;;;;;20.17;14.37;;;23.40;47.40;;;;;;6265631;22;20818;-87
2021/04/29 11:50:52;;;;;;;22.67;13.30;;;23.40;46.80;;;;;;6265213;22;20376;-87
2021/04/29 11:53:30;;;;;;;18.53;12.93;;;23.40;46.70;;;;;;6292854;22;20415;-87
2021/04/29 11:56:00;;;;;;;16.63;13.13;;;23.40;46.80;;;;;;6293938;22;20646;-87
2021/04/29 11:58:27;;;;;;;17.60;13.07;;;23.40;46.80;;;;;;6293602;22;20751;-87
2021/04/29 12:00:59;;;;;;;20.70;13.63;;;23.30;46.80;;;;;;6293356;22;20369;-87
2021/04/29 12:03:29;;;;;;;17.40;13.03;;;23.30;46.80;;;;;;6266598;22;20372;-87
2021/04/29 12:06:02;;;;;;;18.30;13.77;;;23.30;46.80;;;;;;6292673;22;20421;-87
2021/04/29 12:08:32;;;;;;;22.70;14.83;;;23.30;46.70;;;;;;6292309;22;20378;-87
2021/04/29 12:11:09;;;;;;;21.87;14.07;;;23.30;46.80;;;;;;6292807;22;20373;-87
2021/04/29 12:13:53;;;;;;;19.87;14.50;;;23.30;46.80;;;;;;6293365;22;20774;-87
2021/04/29 12:16:22;;;;;;;19.37;13.23;;;23.30;46.90;;;;;;6266085;22;20372;-87
2021/04/29 12:18:56;;;;;;;18.90;12.80;;;23.30;47.00;;;;;;6292649;22;20423;-87
2021/04/29 12:21:24;;;;;;;18.40;13.80;;;23.30;46.80;;;;;;6266790;22;20751;-84
2021/04/29 12:23:58;;;;;;;22.93;14.43;;;23.20;46.80;;;;;;6267605;22;20380;-84
2021/04/29 12:26:34;;;;;;;19.13;13.90;;;23.20;46.80;;;;;;6293671;22;20372;-84
2021/04/29 12:29:03;;;;;;;20.30;14.47;;;23.20;46.80;;;;;;6293610;22;20368;-84
2021/04/29 12:31:30;;;;;;;23.00;14.37;;;23.20;46.90;;;;;;6294471;22;20372;-84
2021/04/29 12:34:02;;;;;;;21.00;14.23;;;23.20;47.00;;;;;;6293816;22;20418;-84
2021/04/29 12:36:29;;;;;;;22.27;15.73;;;23.20;46.90;;;;;;6291645;22;20373;-84
2021/04/29 12:38:57;;;;;;;19.90;14.13;;;23.20;46.90;;;;;;6266088;22;20407;-84
2021/04/29 12:41:35;;;;;;;23.73;14.30;;;23.10;47.00;;;;;;6267078;22;20423;-84
2021/04/29 12:44:04;;;;;;;20.40;14.07;;;23.20;46.90;;;;;;6291989;22;20387;-84
2021/04/29 12:46:39;;;;;;;22.60;14.80;;;23.10;46.90;;;;;;6267334;22;20384;-85
2021/04/29 12:49:06;;;;;;;22.87;14.87;;;23.10;46.90;;;;;;6266561;22;20483;-84
2021/04/29 12:51:34;;;;;;;23.63;15.00;;;23.10;46.90;;;;;;6267206;22;20445;-84
2021/04/29 12:54:08;;;;;;;20.50;15.57;;;23.10;47.00;;;;;;6267183;22;20423;-84
2021/04/29 12:56:36;;;;;;;23.63;16.00;;;23.00;46.90;;;;;;6267904;22;20357;-83
2021/04/29 12:59:11;;;;;;;25.97;16.97;;;23.10;47.00;;;;;;6294055;22;20372;-84
2021/04/29 13:01:40;;;;;;;24.57;15.47;;;23.10;47.00;;;;;;6266631;22;20384;-84
2021/04/29 13:04:26;;;;;;;25.40;17.73;;;23.10;47.10;;;;;;6266328;22;20414;-84
2021/04/29 13:06:54;;;;;;;28.30;16.60;;;23.10;46.90;;;;;;6266782;22;20380;-84
2021/04/29 13:09:34;;;;;;;25.77;16.20;;;23.10;47.10;;;;;;6266777;22;20384;-84
2021/04/29 13:12:08;;;;;;;23.50;16.00;;;23.10;47.00;;;;;;6293394;22;20357;-84
2021/04/29 13:14:37;;;;;;;28.87;17.67;;;23.00;47.00;;;;;;6293019;22;20408;-84
2021/04/29 13:17:16;;;;;;;26.17;16.70;;;23.10;47.00;;;;;;6266157;22;20455;-83
2021/04/29 13:19:44;;;;;;;24.17;17.40;;;23.10;47.00;;;;;;6265806;22;20375;-88
2021/04/29 13:22:15;;;;;;;26.67;17.13;;;23.00;47.00;;;;;;6292037;22;20395;-88
2021/04/29 13:24:44;;;;;;;28.50;17.50;;;23.10;47.10;;;;;;6263585;22;20405;-87
2021/04/29 13:27:18;;;;;;;27.27;18.53;;;23.10;47.20;;;;;;6264985;22;20423;-87
2021/04/29 13:29:55;;;;;;;26.30;17.53;;;23.10;47.00;;;;;;6265594;22;20413;-86
2021/04/29 13:32:28;;;;;;;22.93;17.10;;;23.20;47.50;;;;;;6264312;22;20406;-86
2021/04/29 13:34:54;;;;;;;23.80;18.13;;;23.20;47.00;;;;;;6263868;22;20416;-85
2021/04/29 13:37:23;;;;;;;28.80;18.80;;;23.20;47.20;;;;;;6290222;22;20371;-85
2021/04/29 13:39:49;;;;;;;26.57;18.37;;;23.20;47.20;;;;;;6290729;22;20384;-85
2021/04/29 13:42:17;;;;;;;25.73;18.70;;;23.20;47.10;;;;;;6293304;22;20375;-85
2021/04/29 13:44:45;;;;;;;29.57;19.33;;;23.10;47.30;;;;;;6264904;22;20380;-85
2021/04/29 13:47:11;;;;;;;27.63;19.83;;;23.30;47.40;;;;;;6266810;22;20441;-84
2021/04/29 13:49:37;;;;;;;35.10;20.70;;;23.30;47.10;;;;;;6266643;22;20475;-85
2021/04/29 13:52:46;;;;;;;32.80;20.07;;;23.30;47.30;;;;;;6262105;22;20391;-86
2021/04/29 13:55:13;;;;;;;30.07;20.60;;;23.30;47.00;;;;;;6294060;22;20204;-87
2021/04/29 13:57:39;;;;;;;28.60;20.10;;;23.30;47.10;;;;;;6265270;22;20392;-85
2021/04/29 14:00:09;;;;;;;29.83;21.93;;;23.30;47.60;;;;;;6262628;22;20431;-87
2021/04/29 14:02:34;;;;;;;35.40;21.50;;;23.30;47.20;;;;;;6260992;22;20158;-86
2021/04/29 14:05:10;;;;;;;29.27;20.73;;;23.30;47.60;;;;;;6260618;22;20445;-86
2021/04/29 14:07:36;;;;;;;35.77;21.67;;;23.40;47.30;;;;;;6261592;22;20237;-86
2021/04/29 14:10:03;;;;;;;32.07;22.10;;;23.40;47.60;;;;;;6262049;22;20388;-87
2021/04/29 14:12:33;;;;;;;29.87;21.63;;;23.40;47.40;;;;;;6262736;22;20214;-87
2021/04/29 14:14:59;;;;;;;27.07;20.77;;;23.40;47.40;;;;;;6262817;22;20420;-87
2021/04/29 14:17:31;;;;;;;34.63;23.27;;;23.20;47.50;;;;;;6289571;22;20802;-86
2021/04/29 14:20:04;;;;;;;36.17;23.20;;;23.40;47.30;;;;;;6264831;22;20150;-83
2021/04/29 14:22:35;;;;;;;30.27;22.47;;;23.40;47.40;;;;;;6266154;22;20768;-83